sensor_id;sensor_type;location;lat;lon;timestamp;temperature;humidity
70246;SHT30;57637;49.272;8.590;2022-12-18T00:01:28;-7.95;94.87
70246;SHT30;57637;49.272;8.590;2022-12-18T00:03:56;-8.01;94.81
70246;SHT30;57637;49.272;8.590;2022-12-18T00:06:23;-7.99;94.91
70246;SHT30;57637;49.272;8.590;2022-12-18T00:08:49;-8.02;94.85
70246;SHT30;57637;49.272;8.590;2022-12-18T00:11:17;-7.98;94.86
70246;SHT30;57637;49.272;8.590;2022-12-18T00:13:44;-8.01;94.86
70246;SHT30;57637;49.272;8.590;2022-12-18T00:16:11;-7.99;94.79
70246;SHT30;57637;49.272;8.590;2022-12-18T00:18:39;-8.02;94.82
70246;SHT30;57637;49.272;8.590;2022-12-18T00:21:06;-7.97;94.82
70246;SHT30;57637;49.272;8.590;2022-12-18T00:23:34;-7.98;94.86
70246;SHT30;57637;49.272;8.590;2022-12-18T00:26:04;-7.95;94.89
70246;SHT30;57637;49.272;8.590;2022-12-18T00:28:32;-7.94;94.87
70246;SHT30;57637;49.272;8.590;2022-12-18T00:33:30;-8.01;94.86
70246;SHT30;57637;49.272;8.590;2022-12-18T00:36:00;-7.97;94.85
70246;SHT30;57637;49.272;8.590;2022-12-18T00:38:29;-7.98;94.89
70246;SHT30;57637;49.272;8.590;2022-12-18T00:40:54;-7.97;94.92
70246;SHT30;57637;49.272;8.590;2022-12-18T00:43:20;-7.90;94.80
70246;SHT30;57637;49.272;8.590;2022-12-18T00:45:45;-7.88;94.89
70246;SHT30;57637;49.272;8.590;2022-12-18T00:48:10;-7.84;94.89
70246;SHT30;57637;49.272;8.590;2022-12-18T00:50:36;-7.83;94.92
70246;SHT30;57637;49.272;8.590;2022-12-18T00:53:01;-7.84;94.90
70246;SHT30;57637;49.272;8.590;2022-12-18T00:55:27;-7.78;94.90
70246;SHT30;57637;49.272;8.590;2022-12-18T00:57:52;-7.85;94.84
70246;SHT30;57637;49.272;8.590;2022-12-18T01:00:17;-7.78;94.94
70246;SHT30;57637;49.272;8.590;2022-12-18T01:02:43;-7.81;94.88
70246;SHT30;57637;49.272;8.590;2022-12-18T01:05:09;-7.78;94.94
70246;SHT30;57637;49.272;8.590;2022-12-18T01:07:36;-7.77;94.88
70246;SHT30;57637;49.272;8.590;2022-12-18T01:10:02;-7.71;94.93
70246;SHT30;57637;49.272;8.590;2022-12-18T01:12:29;-7.74;94.90
70246;SHT30;57637;49.272;8.590;2022-12-18T01:14:54;-7.77;94.90
70246;SHT30;57637;49.272;8.590;2022-12-18T01:17:19;-7.77;94.91
70246;SHT30;57637;49.272;8.590;2022-12-18T01:19:46;-7.80;94.91
70246;SHT30;57637;49.272;8.590;2022-12-18T01:22:11;-7.85;94.96
70246;SHT30;57637;49.272;8.590;2022-12-18T01:24:37;-7.81;94.94
70246;SHT30;57637;49.272;8.590;2022-12-18T01:27:02;-7.88;94.95
70246;SHT30;57637;49.272;8.590;2022-12-18T01:29:28;-7.91;94.85
70246;SHT30;57637;49.272;8.590;2022-12-18T01:31:54;-7.93;94.90
70246;SHT30;57637;49.272;8.590;2022-12-18T01:34:20;-7.87;94.97
70246;SHT30;57637;49.272;8.590;2022-12-18T01:36:46;-7.90;94.90
70246;SHT30;57637;49.272;8.590;2022-12-18T01:39:13;-7.88;95.03
70246;SHT30;57637;49.272;8.590;2022-12-18T01:41:39;-7.94;94.89
70246;SHT30;57637;49.272;8.590;2022-12-18T01:47:55;-7.88;95.02
70246;SHT30;57637;49.272;8.590;2022-12-18T01:53:31;-7.90;94.97
70246;SHT30;57637;49.272;8.590;2022-12-18T01:55:50;-7.93;94.92
70246;SHT30;57637;49.272;8.590;2022-12-18T01:58:23;-7.93;94.94
70246;SHT30;57637;49.272;8.590;2022-12-18T02:00:55;-7.93;94.98
70246;SHT30;57637;49.272;8.590;2022-12-18T02:03:20;-7.95;94.91
70246;SHT30;57637;49.272;8.590;2022-12-18T02:05:47;-7.98;94.93
70246;SHT30;57637;49.272;8.590;2022-12-18T02:13:38;-7.88;94.94
70246;SHT30;57637;49.272;8.590;2022-12-18T02:16:31;-7.85;94.94
70246;SHT30;57637;49.272;8.590;2022-12-18T02:19:18;-7.85;94.98
70246;SHT30;57637;49.272;8.590;2022-12-18T02:24:35;-7.98;94.97
70246;SHT30;57637;49.272;8.590;2022-12-18T02:27:10;-8.04;94.95
70246;SHT30;57637;49.272;8.590;2022-12-18T02:30:09;-8.09;94.97
70246;SHT30;57637;49.272;8.590;2022-12-18T02:32:30;-8.11;94.98
70246;SHT30;57637;49.272;8.590;2022-12-18T02:35:01;-8.17;94.94
70246;SHT30;57637;49.272;8.590;2022-12-18T02:37:28;-8.22;95.04
70246;SHT30;57637;49.272;8.590;2022-12-18T02:39:56;-8.25;94.98
70246;SHT30;57637;49.272;8.590;2022-12-18T02:42:23;-8.28;95.01
70246;SHT30;57637;49.272;8.590;2022-12-18T02:44:50;-8.26;95.06
70246;SHT30;57637;49.272;8.590;2022-12-18T02:47:17;-8.26;95.04
70246;SHT30;57637;49.272;8.590;2022-12-18T02:58:20;-8.29;94.99
70246;SHT30;57637;49.272;8.590;2022-12-18T03:06:12;-8.21;95.18
70246;SHT30;57637;49.272;8.590;2022-12-18T03:08:51;-8.33;94.97
70246;SHT30;57637;49.272;8.590;2022-12-18T03:11:23;-8.30;95.10
70246;SHT30;57637;49.272;8.590;2022-12-18T03:14:26;-8.25;95.13
70246;SHT30;57637;49.272;8.590;2022-12-18T03:16:57;-8.22;95.08
70246;SHT30;57637;49.272;8.590;2022-12-18T03:19:31;-8.26;95.09
70246;SHT30;57637;49.272;8.590;2022-12-18T03:21:58;-8.28;95.07
70246;SHT30;57637;49.272;8.590;2022-12-18T03:24:28;-8.25;95.07
70246;SHT30;57637;49.272;8.590;2022-12-18T03:26:57;-8.29;95.09
70246;SHT30;57637;49.272;8.590;2022-12-18T03:29:27;-8.25;95.09
70246;SHT30;57637;49.272;8.590;2022-12-18T03:32:08;-8.29;95.08
70246;SHT30;57637;49.272;8.590;2022-12-18T03:34:37;-8.30;95.07
70246;SHT30;57637;49.272;8.590;2022-12-18T03:37:06;-8.36;95.12
70246;SHT30;57637;49.272;8.590;2022-12-18T03:39:34;-8.40;94.99
70246;SHT30;57637;49.272;8.590;2022-12-18T03:42:04;-8.42;95.15
70246;SHT30;57637;49.272;8.590;2022-12-18T03:49:56;-8.43;95.19
70246;SHT30;57637;49.272;8.590;2022-12-18T03:52:36;-8.53;95.03
70246;SHT30;57637;49.272;8.590;2022-12-18T03:55:05;-8.54;95.12
70246;SHT30;57637;49.272;8.590;2022-12-18T03:57:32;-8.50;95.09
70246;SHT30;57637;49.272;8.590;2022-12-18T04:00:00;-8.49;95.17
70246;SHT30;57637;49.272;8.590;2022-12-18T04:02:29;-8.42;95.21
70246;SHT30;57637;49.272;8.590;2022-12-18T04:04:57;-8.60;95.05
70246;SHT30;57637;49.272;8.590;2022-12-18T04:07:26;-8.60;95.17
70246;SHT30;57637;49.272;8.590;2022-12-18T04:09:53;-8.63;95.19
70246;SHT30;57637;49.272;8.590;2022-12-18T04:12:24;-8.69;95.13
70246;SHT30;57637;49.272;8.590;2022-12-18T04:14:51;-8.73;95.12
70246;SHT30;57637;49.272;8.590;2022-12-18T04:17:16;-8.74;95.16
70246;SHT30;57637;49.272;8.590;2022-12-18T04:19:42;-8.73;95.17
70246;SHT30;57637;49.272;8.590;2022-12-18T04:22:08;-8.64;95.25
70246;SHT30;57637;49.272;8.590;2022-12-18T04:24:35;-8.73;95.15
70246;SHT30;57637;49.272;8.590;2022-12-18T04:27:00;-8.71;95.19
70246;SHT30;57637;49.272;8.590;2022-12-18T04:29:26;-8.71;95.18
70246;SHT30;57637;49.272;8.590;2022-12-18T04:31:51;-8.74;95.18
70246;SHT30;57637;49.272;8.590;2022-12-18T04:34:16;-8.89;95.11
70246;SHT30;57637;49.272;8.590;2022-12-18T04:36:42;-8.87;95.28
70246;SHT30;57637;49.272;8.590;2022-12-18T04:39:07;-8.93;95.22
70246;SHT30;57637;49.272;8.590;2022-12-18T04:41:32;-8.96;95.23
70246;SHT30;57637;49.272;8.590;2022-12-18T04:43:58;-9.01;95.22
70246;SHT30;57637;49.272;8.590;2022-12-18T04:46:23;-8.97;95.27
70246;SHT30;57637;49.272;8.590;2022-12-18T04:48:48;-8.97;95.32
70246;SHT30;57637;49.272;8.590;2022-12-18T04:51:14;-8.97;95.35
70246;SHT30;57637;49.272;8.590;2022-12-18T04:53:39;-9.08;95.21
70246;SHT30;57637;49.272;8.590;2022-12-18T04:56:09;-9.14;95.26
70246;SHT30;57637;49.272;8.590;2022-12-18T04:58:36;-9.12;95.32
70246;SHT30;57637;49.272;8.590;2022-12-18T05:01:02;-9.04;95.27
70246;SHT30;57637;49.272;8.590;2022-12-18T05:03:28;-9.08;95.35
70246;SHT30;57637;49.272;8.590;2022-12-18T05:05:54;-8.96;95.42
70246;SHT30;57637;49.272;8.590;2022-12-18T05:08:19;-9.08;95.22
70246;SHT30;57637;49.272;8.590;2022-12-18T05:10:45;-9.14;95.24
70246;SHT30;57637;49.272;8.590;2022-12-18T05:13:10;-9.15;95.30
70246;SHT30;57637;49.272;8.590;2022-12-18T05:15:35;-9.18;95.30
70246;SHT30;57637;49.272;8.590;2022-12-18T05:18:01;-9.15;95.47
70246;SHT30;57637;49.272;8.590;2022-12-18T05:20:28;-9.25;95.27
70246;SHT30;57637;49.272;8.590;2022-12-18T05:22:53;-9.21;95.25
70246;SHT30;57637;49.272;8.590;2022-12-18T05:25:19;-9.27;95.41
70246;SHT30;57637;49.272;8.590;2022-12-18T05:27:45;-9.07;95.57
70246;SHT30;57637;49.272;8.590;2022-12-18T05:30:11;-8.93;95.53
70246;SHT30;57637;49.272;8.590;2022-12-18T05:32:37;-9.00;95.40
70246;SHT30;57637;49.272;8.590;2022-12-18T05:35:05;-8.86;95.46
70246;SHT30;57637;49.272;8.590;2022-12-18T05:37:31;-8.64;95.33
70246;SHT30;57637;49.272;8.590;2022-12-18T05:39:57;-8.64;95.29
70246;SHT30;57637;49.272;8.590;2022-12-18T05:42:22;-8.43;95.33
70246;SHT30;57637;49.272;8.590;2022-12-18T05:44:48;-8.35;95.23
70246;SHT30;57637;49.272;8.590;2022-12-18T05:47:13;-8.24;95.29
70246;SHT30;57637;49.272;8.590;2022-12-18T05:49:39;-8.18;95.28
70246;SHT30;57637;49.272;8.590;2022-12-18T05:52:04;-8.05;95.23
70246;SHT30;57637;49.272;8.590;2022-12-18T05:54:29;-7.99;95.20
70246;SHT30;57637;49.272;8.590;2022-12-18T05:56:56;-7.85;95.18
70246;SHT30;57637;49.272;8.590;2022-12-18T05:59:21;-7.69;95.15
70246;SHT30;57637;49.272;8.590;2022-12-18T06:01:47;-7.73;95.11
70246;SHT30;57637;49.272;8.590;2022-12-18T06:04:12;-7.71;95.11
70246;SHT30;57637;49.272;8.590;2022-12-18T06:06:37;-7.71;95.13
70246;SHT30;57637;49.272;8.590;2022-12-18T06:09:03;-7.67;95.12
70246;SHT30;57637;49.272;8.590;2022-12-18T06:11:33;-7.69;95.09
70246;SHT30;57637;49.272;8.590;2022-12-18T06:14:00;-7.75;95.13
70246;SHT30;57637;49.272;8.590;2022-12-18T06:16:29;-7.83;95.14
70246;SHT30;57637;49.272;8.590;2022-12-18T06:18:56;-7.78;95.19
70246;SHT30;57637;49.272;8.590;2022-12-18T06:21:22;-7.73;95.18
70246;SHT30;57637;49.272;8.590;2022-12-18T06:23:47;-7.69;95.04
70246;SHT30;57637;49.272;8.590;2022-12-18T06:26:13;-7.70;95.15
70246;SHT30;57637;49.272;8.590;2022-12-18T06:28:39;-7.73;95.11
70246;SHT30;57637;49.272;8.590;2022-12-18T06:31:05;-7.67;95.18
70246;SHT30;57637;49.272;8.590;2022-12-18T06:33:31;-7.71;95.21
70246;SHT30;57637;49.272;8.590;2022-12-18T06:36:01;-7.67;95.09
70246;SHT30;57637;49.272;8.590;2022-12-18T06:38:32;-7.70;95.04
70246;SHT30;57637;49.272;8.590;2022-12-18T06:40:59;-7.71;95.13
70246;SHT30;57637;49.272;8.590;2022-12-18T06:43:25;-7.70;95.13
70246;SHT30;57637;49.272;8.590;2022-12-18T06:45:50;-7.66;95.10
70246;SHT30;57637;49.272;8.590;2022-12-18T06:48:20;-7.66;95.07
70246;SHT30;57637;49.272;8.590;2022-12-18T06:50:45;-7.69;95.17
70246;SHT30;57637;49.272;8.590;2022-12-18T06:53:11;-7.61;95.07
70246;SHT30;57637;49.272;8.590;2022-12-18T06:55:36;-7.66;95.07
70246;SHT30;57637;49.272;8.590;2022-12-18T06:58:02;-7.70;95.19
70246;SHT30;57637;49.272;8.590;2022-12-18T07:00:27;-7.67;95.19
70246;SHT30;57637;49.272;8.590;2022-12-18T07:02:52;-7.63;95.07
70246;SHT30;57637;49.272;8.590;2022-12-18T07:05:18;-7.60;95.02
70246;SHT30;57637;49.272;8.590;2022-12-18T07:07:43;-7.64;95.09
70246;SHT30;57637;49.272;8.590;2022-12-18T07:10:08;-7.69;95.05
70246;SHT30;57637;49.272;8.590;2022-12-18T07:12:34;-7.77;95.10
70246;SHT30;57637;49.272;8.590;2022-12-18T07:15:00;-7.81;95.09
70246;SHT30;57637;49.272;8.590;2022-12-18T07:17:25;-7.84;95.10
70246;SHT30;57637;49.272;8.590;2022-12-18T07:19:51;-7.87;95.00
70246;SHT30;57637;49.272;8.590;2022-12-18T07:22:16;-7.88;95.18
70246;SHT30;57637;49.272;8.590;2022-12-18T07:24:41;-7.90;95.14
70246;SHT30;57637;49.272;8.590;2022-12-18T07:27:07;-7.88;95.19
70246;SHT30;57637;49.272;8.590;2022-12-18T07:29:32;-7.90;95.13
70246;SHT30;57637;49.272;8.590;2022-12-18T07:31:57;-7.85;95.09
70246;SHT30;57637;49.272;8.590;2022-12-18T07:34:23;-7.87;95.12
70246;SHT30;57637;49.272;8.590;2022-12-18T07:36:48;-7.88;95.04
70246;SHT30;57637;49.272;8.590;2022-12-18T07:39:13;-7.83;95.24
70246;SHT30;57637;49.272;8.590;2022-12-18T07:41:39;-7.81;95.07
70246;SHT30;57637;49.272;8.590;2022-12-18T07:44:11;-7.77;95.32
70246;SHT30;57637;49.272;8.590;2022-12-18T07:46:37;-7.73;95.13
70246;SHT30;57637;49.272;8.590;2022-12-18T07:49:02;-7.73;95.10
70246;SHT30;57637;49.272;8.590;2022-12-18T07:51:28;-7.71;95.15
70246;SHT30;57637;49.272;8.590;2022-12-18T07:53:54;-7.70;95.01
70246;SHT30;57637;49.272;8.590;2022-12-18T07:56:19;-7.70;94.83
70246;SHT30;57637;49.272;8.590;2022-12-18T07:58:45;-7.69;95.14
70246;SHT30;57637;49.272;8.590;2022-12-18T08:01:11;-7.69;95.02
70246;SHT30;57637;49.272;8.590;2022-12-18T08:03:37;-7.64;94.99
70246;SHT30;57637;49.272;8.590;2022-12-18T08:06:05;-7.69;94.94
70246;SHT30;57637;49.272;8.590;2022-12-18T08:08:32;-7.66;94.74
70246;SHT30;57637;49.272;8.590;2022-12-18T08:10:58;-7.60;94.91
70246;SHT30;57637;49.272;8.590;2022-12-18T08:13:24;-7.57;94.64
70246;SHT30;57637;49.272;8.590;2022-12-18T08:15:57;-7.54;94.53
70246;SHT30;57637;49.272;8.590;2022-12-18T08:18:23;-7.50;94.00
70246;SHT30;57637;49.272;8.590;2022-12-18T08:20:49;-7.46;93.89
70246;SHT30;57637;49.272;8.590;2022-12-18T08:23:14;-7.46;93.14
70246;SHT30;57637;49.272;8.590;2022-12-18T08:25:40;-7.34;93.62
70246;SHT30;57637;49.272;8.590;2022-12-18T08:28:05;-7.26;93.58
70246;SHT30;57637;49.272;8.590;2022-12-18T08:30:30;-7.22;93.65
70246;SHT30;57637;49.272;8.590;2022-12-18T08:32:56;-7.18;93.52
70246;SHT30;57637;49.272;8.590;2022-12-18T08:35:21;-7.16;92.80
70246;SHT30;57637;49.272;8.590;2022-12-18T08:37:47;-7.09;92.47
70246;SHT30;57637;49.272;8.590;2022-12-18T08:40:12;-7.03;92.38
70246;SHT30;57637;49.272;8.590;2022-12-18T08:42:38;-6.99;91.90
70246;SHT30;57637;49.272;8.590;2022-12-18T08:45:21;-6.88;91.92
70246;SHT30;57637;49.272;8.590;2022-12-18T08:47:47;-6.91;91.35
70246;SHT30;57637;49.272;8.590;2022-12-18T08:50:12;-6.81;91.63
70246;SHT30;57637;49.272;8.590;2022-12-18T08:52:37;-6.81;90.99
70246;SHT30;57637;49.272;8.590;2022-12-18T08:55:03;-6.67;91.23
70246;SHT30;57637;49.272;8.590;2022-12-18T08:57:29;-6.64;90.86
70246;SHT30;57637;49.272;8.590;2022-12-18T08:59:54;-6.64;90.71
70246;SHT30;57637;49.272;8.590;2022-12-18T09:02:20;-6.54;90.71
70246;SHT30;57637;49.272;8.590;2022-12-18T09:04:46;-6.54;90.19
70246;SHT30;57637;49.272;8.590;2022-12-18T09:07:12;-6.52;90.42
70246;SHT30;57637;49.272;8.590;2022-12-18T09:09:37;-6.45;90.50
70246;SHT30;57637;49.272;8.590;2022-12-18T09:12:03;-6.33;90.46
70246;SHT30;57637;49.272;8.590;2022-12-18T09:14:28;-6.27;90.49
70246;SHT30;57637;49.272;8.590;2022-12-18T09:16:54;-6.24;89.97
70246;SHT30;57637;49.272;8.590;2022-12-18T09:19:19;-6.26;89.78
70246;SHT30;57637;49.272;8.590;2022-12-18T09:21:45;-6.17;89.83
70246;SHT30;57637;49.272;8.590;2022-12-18T09:24:16;-6.11;89.31
70246;SHT30;57637;49.272;8.590;2022-12-18T09:26:41;-6.13;89.33
70246;SHT30;57637;49.272;8.590;2022-12-18T09:29:07;-6.20;89.21
70246;SHT30;57637;49.272;8.590;2022-12-18T09:31:32;-6.17;89.08
70246;SHT30;57637;49.272;8.590;2022-12-18T09:33:58;-6.06;89.13
70246;SHT30;57637;49.272;8.590;2022-12-18T09:36:24;-5.96;89.05
70246;SHT30;57637;49.272;8.590;2022-12-18T09:38:49;-5.82;88.87
70246;SHT30;57637;49.272;8.590;2022-12-18T09:43:51;-5.56;88.54
70246;SHT30;57637;49.272;8.590;2022-12-18T09:46:28;-5.39;88.42
70246;SHT30;57637;49.272;8.590;2022-12-18T09:49:02;-5.34;88.09
70246;SHT30;57637;49.272;8.590;2022-12-18T09:51:32;-5.28;87.93
70246;SHT30;57637;49.272;8.590;2022-12-18T09:54:22;-5.18;87.65
70246;SHT30;57637;49.272;8.590;2022-12-18T09:56:51;-5.14;87.39
70246;SHT30;57637;49.272;8.590;2022-12-18T09:59:34;-4.99;87.62
70246;SHT30;57637;49.272;8.590;2022-12-18T10:02:12;-5.01;87.11
70246;SHT30;57637;49.272;8.590;2022-12-18T10:04:40;-4.90;87.25
70246;SHT30;57637;49.272;8.590;2022-12-18T10:07:16;-4.76;87.50
70246;SHT30;57637;49.272;8.590;2022-12-18T10:10:01;-4.84;87.17
70246;SHT30;57637;49.272;8.590;2022-12-18T10:15:46;-4.68;87.01
70246;SHT30;57637;49.272;8.590;2022-12-18T10:27:18;-4.30;85.77
70246;SHT30;57637;49.272;8.590;2022-12-18T10:29:47;-4.14;85.94
70246;SHT30;57637;49.272;8.590;2022-12-18T10:32:14;-3.88;85.85
70246;SHT30;57637;49.272;8.590;2022-12-18T10:34:44;-3.84;84.83
70246;SHT30;57637;49.272;8.590;2022-12-18T10:37:12;-3.90;84.88
70246;SHT30;57637;49.272;8.590;2022-12-18T10:39:42;-3.94;84.47
70246;SHT30;57637;49.272;8.590;2022-12-18T10:42:16;-3.87;84.58
70246;SHT30;57637;49.272;8.590;2022-12-18T10:44:43;-3.73;84.18
70246;SHT30;57637;49.272;8.590;2022-12-18T10:47:11;-3.78;83.88
70246;SHT30;57637;49.272;8.590;2022-12-18T10:49:42;-3.81;84.12
70246;SHT30;57637;49.272;8.590;2022-12-18T10:54:39;-3.60;83.50
70246;SHT30;57637;49.272;8.590;2022-12-18T10:57:15;-3.60;83.38
70246;SHT30;57637;49.272;8.590;2022-12-18T10:59:53;-3.46;83.56
70246;SHT30;57637;49.272;8.590;2022-12-18T11:02:37;-3.29;83.30
70246;SHT30;57637;49.272;8.590;2022-12-18T11:05:08;-3.22;82.42
70246;SHT30;57637;49.272;8.590;2022-12-18T11:07:58;-3.28;82.26
70246;SHT30;57637;49.272;8.590;2022-12-18T11:10:26;-3.08;82.59
70246;SHT30;57637;49.272;8.590;2022-12-18T11:12:55;-3.02;82.92
70246;SHT30;57637;49.272;8.590;2022-12-18T11:15:33;-3.13;82.45
70246;SHT30;57637;49.272;8.590;2022-12-18T11:17:59;-3.25;82.56
70246;SHT30;57637;49.272;8.590;2022-12-18T11:20:30;-3.11;82.48
70246;SHT30;57637;49.272;8.590;2022-12-18T11:23:20;-3.03;82.83
70246;SHT30;57637;49.272;8.590;2022-12-18T11:25:55;-2.93;82.03
70246;SHT30;57637;49.272;8.590;2022-12-18T11:28:28;-2.96;82.06
70246;SHT30;57637;49.272;8.590;2022-12-18T11:31:27;-2.84;81.51
70246;SHT30;57637;49.272;8.590;2022-12-18T11:36:42;-2.93;82.07
70246;SHT30;57637;49.272;8.590;2022-12-18T11:39:15;-2.93;81.91
70246;SHT30;57637;49.272;8.590;2022-12-18T11:42:03;-2.98;81.90
70246;SHT30;57637;49.272;8.590;2022-12-18T11:44:48;-2.89;82.05
70246;SHT30;57637;49.272;8.590;2022-12-18T11:47:21;-2.81;81.61
70246;SHT30;57637;49.272;8.590;2022-12-18T11:49:55;-2.89;81.74
70246;SHT30;57637;49.272;8.590;2022-12-18T11:52:26;-2.75;82.10
70246;SHT30;57637;49.272;8.590;2022-12-18T11:54:58;-2.70;81.86
70246;SHT30;57637;49.272;8.590;2022-12-18T12:00:07;-2.72;82.00
70246;SHT30;57637;49.272;8.590;2022-12-18T12:08:01;-2.48;81.70
70246;SHT30;57637;49.272;8.590;2022-12-18T12:13:35;-2.36;81.15
70246;SHT30;57637;49.272;8.590;2022-12-18T12:16:25;-2.41;81.13
70246;SHT30;57637;49.272;8.590;2022-12-18T12:21:41;-2.46;81.51
70246;SHT30;57637;49.272;8.590;2022-12-18T12:27:10;-2.41;81.57
70246;SHT30;57637;49.272;8.590;2022-12-18T12:32:18;-2.32;81.62
70246;SHT30;57637;49.272;8.590;2022-12-18T12:37:49;-2.33;81.22
70246;SHT30;57637;49.272;8.590;2022-12-18T12:40:26;-2.26;81.40
70246;SHT30;57637;49.272;8.590;2022-12-18T12:42:56;-2.07;81.76
70246;SHT30;57637;49.272;8.590;2022-12-18T12:45:46;-2.14;81.23
70246;SHT30;57637;49.272;8.590;2022-12-18T12:48:21;-2.10;81.56
70246;SHT30;57637;49.272;8.590;2022-12-18T12:50:58;-2.10;81.35
70246;SHT30;57637;49.272;8.590;2022-12-18T12:53:28;-2.17;81.32
70246;SHT30;57637;49.272;8.590;2022-12-18T12:55:57;-2.25;81.60
70246;SHT30;57637;49.272;8.590;2022-12-18T12:58:38;-2.14;81.86
70246;SHT30;57637;49.272;8.590;2022-12-18T13:04:15;-2.09;81.65
70246;SHT30;57637;49.272;8.590;2022-12-18T13:06:57;-1.95;81.60
70246;SHT30;57637;49.272;8.590;2022-12-18T13:09:23;-1.85;81.38
70246;SHT30;57637;49.272;8.590;2022-12-18T13:11:49;-1.90;81.40
70246;SHT30;57637;49.272;8.590;2022-12-18T13:14:42;-2.05;81.74
70246;SHT30;57637;49.272;8.590;2022-12-18T13:19:55;-1.59;81.51
70246;SHT30;57637;49.272;8.590;2022-12-18T13:28:00;-1.93;81.75
70246;SHT30;57637;49.272;8.590;2022-12-18T13:30:43;-1.90;81.70
70246;SHT30;57637;49.272;8.590;2022-12-18T13:45:50;-2.05;81.79
70246;SHT30;57637;49.272;8.590;2022-12-18T13:48:26;-2.03;82.00
70246;SHT30;57637;49.272;8.590;2022-12-18T13:51:04;-2.03;82.19
70246;SHT30;57637;49.272;8.590;2022-12-18T13:53:33;-1.97;82.35
70246;SHT30;57637;49.272;8.590;2022-12-18T13:55:59;-2.02;82.57
70246;SHT30;57637;49.272;8.590;2022-12-18T13:58:25;-2.03;82.61
70246;SHT30;57637;49.272;8.590;2022-12-18T14:00:50;-2.00;82.64
70246;SHT30;57637;49.272;8.590;2022-12-18T14:03:27;-2.10;82.72
70246;SHT30;57637;49.272;8.590;2022-12-18T14:06:04;-2.06;82.54
70246;SHT30;57637;49.272;8.590;2022-12-18T14:08:34;-2.10;82.66
70246;SHT30;57637;49.272;8.590;2022-12-18T14:11:03;-2.07;82.78
70246;SHT30;57637;49.272;8.590;2022-12-18T14:13:36;-2.03;82.90
70246;SHT30;57637;49.272;8.590;2022-12-18T14:16:06;-2.07;82.64
70246;SHT30;57637;49.272;8.590;2022-12-18T14:21:21;-2.23;82.95
70246;SHT30;57637;49.272;8.590;2022-12-18T14:24:02;-2.25;83.10
70246;SHT30;57637;49.272;8.590;2022-12-18T14:26:33;-2.22;83.03
70246;SHT30;57637;49.272;8.590;2022-12-18T14:29:01;-2.23;83.19
70246;SHT30;57637;49.272;8.590;2022-12-18T14:31:43;-2.23;83.38
70246;SHT30;57637;49.272;8.590;2022-12-18T14:34:14;-2.23;83.31
70246;SHT30;57637;49.272;8.590;2022-12-18T14:36:51;-2.26;83.34
70246;SHT30;57637;49.272;8.590;2022-12-18T14:39:18;-2.29;83.22
70246;SHT30;57637;49.272;8.590;2022-12-18T14:41:43;-2.32;83.19
70246;SHT30;57637;49.272;8.590;2022-12-18T14:44:10;-2.30;83.28
70246;SHT30;57637;49.272;8.590;2022-12-18T14:46:42;-2.34;83.59
70246;SHT30;57637;49.272;8.590;2022-12-18T14:52:05;-2.40;83.72
70246;SHT30;57637;49.272;8.590;2022-12-18T14:54:31;-2.40;83.76
70246;SHT30;57637;49.272;8.590;2022-12-18T14:57:03;-2.40;83.50
70246;SHT30;57637;49.272;8.590;2022-12-18T14:59:49;-2.41;83.74
70246;SHT30;57637;49.272;8.590;2022-12-18T15:04:47;-2.47;83.95
70246;SHT30;57637;49.272;8.590;2022-12-18T15:07:24;-2.53;84.04
70246;SHT30;57637;49.272;8.590;2022-12-18T15:12:43;-2.60;84.44
70246;SHT30;57637;49.272;8.590;2022-12-18T15:18:02;-2.64;84.61
70246;SHT30;57637;49.272;8.590;2022-12-18T15:20:31;-2.64;84.55
70246;SHT30;57637;49.272;8.590;2022-12-18T15:23:04;-2.67;84.70
70246;SHT30;57637;49.272;8.590;2022-12-18T15:25:36;-2.71;84.91
70246;SHT30;57637;49.272;8.590;2022-12-18T15:28:03;-2.74;85.01
70246;SHT30;57637;49.272;8.590;2022-12-18T15:30:29;-2.78;84.98
70246;SHT30;57637;49.272;8.590;2022-12-18T15:35:55;-2.82;85.36
70246;SHT30;57637;49.272;8.590;2022-12-18T15:38:21;-2.82;85.29
70246;SHT30;57637;49.272;8.590;2022-12-18T15:40:47;-2.82;85.35
70246;SHT30;57637;49.272;8.590;2022-12-18T15:43:12;-2.85;85.40
70246;SHT30;57637;49.272;8.590;2022-12-18T15:45:56;-2.85;85.54
70246;SHT30;57637;49.272;8.590;2022-12-18T15:48:22;-2.82;85.47
70246;SHT30;57637;49.272;8.590;2022-12-18T15:50:49;-2.81;85.54
70246;SHT30;57637;49.272;8.590;2022-12-18T15:53:17;-2.80;85.53
70246;SHT30;57637;49.272;8.590;2022-12-18T15:55:42;-2.80;85.52
70246;SHT30;57637;49.272;8.590;2022-12-18T15:58:27;-2.85;85.68
70246;SHT30;57637;49.272;8.590;2022-12-18T16:00:52;-2.88;85.87
70246;SHT30;57637;49.272;8.590;2022-12-18T16:03:19;-2.81;85.78
70246;SHT30;57637;49.272;8.590;2022-12-18T16:05:45;-2.80;85.65
70246;SHT30;57637;49.272;8.590;2022-12-18T16:08:10;-2.80;85.80
70246;SHT30;57637;49.272;8.590;2022-12-18T16:10:35;-2.80;85.86
70246;SHT30;57637;49.272;8.590;2022-12-18T16:13:01;-2.80;85.87
70246;SHT30;57637;49.272;8.590;2022-12-18T16:15:26;-2.81;86.13
70246;SHT30;57637;49.272;8.590;2022-12-18T16:17:51;-2.82;86.19
70246;SHT30;57637;49.272;8.590;2022-12-18T16:20:18;-2.81;86.15
70246;SHT30;57637;49.272;8.590;2022-12-18T16:22:45;-2.81;86.18
70246;SHT30;57637;49.272;8.590;2022-12-18T16:27:53;-2.78;86.00
70246;SHT30;57637;49.272;8.590;2022-12-18T16:30:29;-2.81;86.25
70246;SHT30;57637;49.272;8.590;2022-12-18T16:32:57;-2.82;86.31
70246;SHT30;57637;49.272;8.590;2022-12-18T16:35:22;-2.81;86.28
70246;SHT30;57637;49.272;8.590;2022-12-18T16:37:48;-2.75;86.40
70246;SHT30;57637;49.272;8.590;2022-12-18T16:40:14;-2.75;86.45
70246;SHT30;57637;49.272;8.590;2022-12-18T16:42:41;-2.75;86.51
70246;SHT30;57637;49.272;8.590;2022-12-18T16:45:09;-2.74;86.41
70246;SHT30;57637;49.272;8.590;2022-12-18T16:47:36;-2.75;86.50
70246;SHT30;57637;49.272;8.590;2022-12-18T16:50:03;-2.64;86.17
70246;SHT30;57637;49.272;8.590;2022-12-18T16:52:29;-2.62;86.14
70246;SHT30;57637;49.272;8.590;2022-12-18T16:54:54;-2.64;86.03
70246;SHT30;57637;49.272;8.590;2022-12-18T16:57:20;-2.60;85.96
70246;SHT30;57637;49.272;8.590;2022-12-18T16:59:46;-2.62;86.12
70246;SHT30;57637;49.272;8.590;2022-12-18T17:02:13;-2.62;86.28
70246;SHT30;57637;49.272;8.590;2022-12-18T17:04:41;-2.60;86.15
70246;SHT30;57637;49.272;8.590;2022-12-18T17:07:07;-2.60;86.21
70246;SHT30;57637;49.272;8.590;2022-12-18T17:09:33;-2.60;86.27
70246;SHT30;57637;49.272;8.590;2022-12-18T17:11:59;-2.58;86.17
70246;SHT30;57637;49.272;8.590;2022-12-18T17:14:24;-2.53;86.49
70246;SHT30;57637;49.272;8.590;2022-12-18T17:16:50;-2.54;86.07
70246;SHT30;57637;49.272;8.590;2022-12-18T17:19:16;-2.60;86.11
70246;SHT30;57637;49.272;8.590;2022-12-18T17:21:42;-2.60;86.13
70246;SHT30;57637;49.272;8.590;2022-12-18T17:24:09;-2.64;86.21
70246;SHT30;57637;49.272;8.590;2022-12-18T17:26:35;-2.67;86.47
70246;SHT30;57637;49.272;8.590;2022-12-18T17:29:01;-2.68;86.45
70246;SHT30;57637;49.272;8.590;2022-12-18T17:31:27;-2.70;86.52
70246;SHT30;57637;49.272;8.590;2022-12-18T17:33:54;-2.72;86.44
70246;SHT30;57637;49.272;8.590;2022-12-18T17:36:20;-2.72;86.56
70246;SHT30;57637;49.272;8.590;2022-12-18T17:39:05;-2.72;86.60
70246;SHT30;57637;49.272;8.590;2022-12-18T17:41:31;-2.77;86.62
70246;SHT30;57637;49.272;8.590;2022-12-18T17:43:58;-2.81;86.89